sensor_id;sensor_type;location;lat;lon;timestamp;P1;durP1;ratioP1;P2;durP2;ratioP2
76731;SDS011;65656;51.130;13.658;2023-05-19T00:01:47;9.57;;;6.10;;
76731;SDS011;65656;51.130;13.658;2023-05-19T00:05:51;5.90;;;5.35;;
76731;SDS011;65656;51.130;13.658;2023-05-19T00:09:53;5.95;;;4.65;;
76731;SDS011;65656;51.130;13.658;2023-05-19T00:13:56;10.50;;;9.85;;
76731;SDS011;65656;51.130;13.658;2023-05-19T00:17:59;5.93;;;5.20;;
76731;SDS011;65656;51.130;13.658;2023-05-19T00:22:02;12.20;;;6.88;;
76731;SDS011;65656;51.130;13.658;2023-05-19T00:26:04;6.18;;;5.55;;
76731;SDS011;65656;51.130;13.658;2023-05-19T00:30:06;9.43;;;8.75;;
76731;SDS011;65656;51.130;13.658;2023-05-19T00:34:08;6.78;;;5.93;;
76731;SDS011;65656;51.130;13.658;2023-05-19T00:38:11;10.23;;;9.32;;
76731;SDS011;65656;51.130;13.658;2023-05-19T00:42:13;5.45;;;5.00;;
76731;SDS011;65656;51.130;13.658;2023-05-19T00:46:15;8.80;;;8.18;;
76731;SDS011;65656;51.130;13.658;2023-05-19T00:50:16;13.18;;;11.07;;
76731;SDS011;65656;51.130;13.658;2023-05-19T00:54:19;10.68;;;9.82;;
76731;SDS011;65656;51.130;13.658;2023-05-19T00:58:21;5.53;;;4.53;;
76731;SDS011;65656;51.130;13.658;2023-05-19T01:02:23;10.38;;;9.07;;
76731;SDS011;65656;51.130;13.658;2023-05-19T01:06:25;9.15;;;8.30;;
76731;SDS011;65656;51.130;13.658;2023-05-19T01:10:27;8.98;;;7.95;;
76731;SDS011;65656;51.130;13.658;2023-05-19T01:14:29;10.38;;;9.43;;
76731;SDS011;65656;51.130;13.658;2023-05-19T01:18:33;9.55;;;8.82;;
76731;SDS011;65656;51.130;13.658;2023-05-19T01:22:55;11.63;;;10.63;;
76731;SDS011;65656;51.130;13.658;2023-05-19T01:27:26;10.48;;;9.50;;
76731;SDS011;65656;51.130;13.658;2023-05-19T01:31:44;8.27;;;7.65;;
76731;SDS011;65656;51.130;13.658;2023-05-19T01:35:46;10.63;;;9.75;;
76731;SDS011;65656;51.130;13.658;2023-05-19T01:39:49;10.75;;;9.85;;
76731;SDS011;65656;51.130;13.658;2023-05-19T01:43:52;10.75;;;10.07;;
76731;SDS011;65656;51.130;13.658;2023-05-19T01:47:56;12.80;;;11.75;;
76731;SDS011;65656;51.130;13.658;2023-05-19T01:51:59;13.13;;;12.40;;
76731;SDS011;65656;51.130;13.658;2023-05-19T01:56:01;9.45;;;8.63;;
76731;SDS011;65656;51.130;13.658;2023-05-19T02:00:04;9.10;;;8.40;;
76731;SDS011;65656;51.130;13.658;2023-05-19T02:04:18;11.65;;;10.88;;
76731;SDS011;65656;51.130;13.658;2023-05-19T02:08:26;8.48;;;7.70;;
76731;SDS011;65656;51.130;13.658;2023-05-19T02:12:35;8.77;;;7.95;;
76731;SDS011;65656;51.130;13.658;2023-05-19T02:16:38;13.88;;;13.05;;
76731;SDS011;65656;51.130;13.658;2023-05-19T02:20:46;14.23;;;13.40;;
76731;SDS011;65656;51.130;13.658;2023-05-19T02:24:48;10.88;;;9.90;;
76731;SDS011;65656;51.130;13.658;2023-05-19T02:28:49;11.27;;;10.55;;
76731;SDS011;65656;51.130;13.658;2023-05-19T02:32:51;13.35;;;12.30;;
76731;SDS011;65656;51.130;13.658;2023-05-19T02:36:54;14.80;;;13.82;;
76731;SDS011;65656;51.130;13.658;2023-05-19T02:40:55;10.98;;;10.10;;
76731;SDS011;65656;51.130;13.658;2023-05-19T02:44:57;14.68;;;13.63;;
76731;SDS011;65656;51.130;13.658;2023-05-19T02:48:58;15.00;;;14.15;;
76731;SDS011;65656;51.130;13.658;2023-05-19T02:53:02;10.73;;;9.95;;
76731;SDS011;65656;51.130;13.658;2023-05-19T02:57:04;11.93;;;11.00;;
76731;SDS011;65656;51.130;13.658;2023-05-19T03:01:06;10.05;;;9.35;;
76731;SDS011;65656;51.130;13.658;2023-05-19T03:05:08;10.30;;;9.07;;
76731;SDS011;65656;51.130;13.658;2023-05-19T03:09:11;12.55;;;11.73;;
76731;SDS011;65656;51.130;13.658;2023-05-19T03:13:13;14.43;;;13.45;;
76731;SDS011;65656;51.130;13.658;2023-05-19T03:17:14;8.55;;;7.90;;
76731;SDS011;65656;51.130;13.658;2023-05-19T03:21:16;11.15;;;10.43;;
76731;SDS011;65656;51.130;13.658;2023-05-19T03:25:19;9.73;;;8.90;;
76731;SDS011;65656;51.130;13.658;2023-05-19T03:29:21;11.68;;;10.88;;
76731;SDS011;65656;51.130;13.658;2023-05-19T03:33:22;10.18;;;9.45;;
76731;SDS011;65656;51.130;13.658;2023-05-19T03:37:24;9.48;;;8.57;;
76731;SDS011;65656;51.130;13.658;2023-05-19T03:41:27;11.95;;;11.13;;
76731;SDS011;65656;51.130;13.658;2023-05-19T03:45:28;13.32;;;12.32;;
76731;SDS011;65656;51.130;13.658;2023-05-19T03:49:30;14.18;;;13.35;;
76731;SDS011;65656;51.130;13.658;2023-05-19T03:53:32;8.52;;;7.78;;
76731;SDS011;65656;51.130;13.658;2023-05-19T03:57:35;12.95;;;12.02;;
76731;SDS011;65656;51.130;13.658;2023-05-19T04:01:36;13.43;;;12.48;;
76731;SDS011;65656;51.130;13.658;2023-05-19T04:05:38;23.77;;;22.48;;
76731;SDS011;65656;51.130;13.658;2023-05-19T04:09:39;7.90;;;7.18;;
76731;SDS011;65656;51.130;13.658;2023-05-19T04:13:42;17.90;;;16.55;;
76731;SDS011;65656;51.130;13.658;2023-05-19T04:17:45;12.82;;;11.65;;
76731;SDS011;65656;51.130;13.658;2023-05-19T04:21:47;9.27;;;8.45;;
76731;SDS011;65656;51.130;13.658;2023-05-19T04:25:48;10.57;;;9.73;;
76731;SDS011;65656;51.130;13.658;2023-05-19T04:29:51;14.98;;;13.80;;
76731;SDS011;65656;51.130;13.658;2023-05-19T04:33:53;8.40;;;7.68;;
76731;SDS011;65656;51.130;13.658;2023-05-19T04:37:54;10.80;;;9.98;;
76731;SDS011;65656;51.130;13.658;2023-05-19T04:41:56;9.52;;;8.82;;
76731;SDS011;65656;51.130;13.658;2023-05-19T04:45:59;11.45;;;10.43;;
76731;SDS011;65656;51.130;13.658;2023-05-19T04:50:00;15.68;;;14.65;;
76731;SDS011;65656;51.130;13.658;2023-05-19T04:54:02;16.35;;;15.35;;
76731;SDS011;65656;51.130;13.658;2023-05-19T04:58:04;12.48;;;11.55;;
76731;SDS011;65656;51.130;13.658;2023-05-19T05:02:07;12.40;;;11.45;;
76731;SDS011;65656;51.130;13.658;2023-05-19T05:06:08;9.38;;;8.60;;
76731;SDS011;65656;51.130;13.658;2023-05-19T05:10:10;10.80;;;9.88;;
76731;SDS011;65656;51.130;13.658;2023-05-19T05:14:12;12.10;;;11.27;;
76731;SDS011;65656;51.130;13.658;2023-05-19T05:18:15;7.88;;;7.25;;
76731;SDS011;65656;51.130;13.658;2023-05-19T05:22:17;10.10;;;9.27;;
76731;SDS011;65656;51.130;13.658;2023-05-19T05:26:19;12.43;;;11.20;;
76731;SDS011;65656;51.130;13.658;2023-05-19T05:30:21;7.63;;;6.80;;
76731;SDS011;65656;51.130;13.658;2023-05-19T05:34:24;12.35;;;11.52;;
76731;SDS011;65656;51.130;13.658;2023-05-19T05:38:26;11.43;;;10.60;;
76731;SDS011;65656;51.130;13.658;2023-05-19T05:42:27;12.23;;;9.02;;
76731;SDS011;65656;51.130;13.658;2023-05-19T05:46:30;14.00;;;12.98;;
76731;SDS011;65656;51.130;13.658;2023-05-19T05:50:34;9.57;;;8.65;;
76731;SDS011;65656;51.130;13.658;2023-05-19T05:54:36;14.70;;;13.60;;
76731;SDS011;65656;51.130;13.658;2023-05-19T05:58:38;11.02;;;9.98;;
76731;SDS011;65656;51.130;13.658;2023-05-19T06:02:40;10.48;;;9.70;;
76731;SDS011;65656;51.130;13.658;2023-05-19T06:06:44;9.38;;;8.55;;
76731;SDS011;65656;51.130;13.658;2023-05-19T06:10:46;9.63;;;7.72;;
76731;SDS011;65656;51.130;13.658;2023-05-19T06:14:47;12.93;;;11.93;;
76731;SDS011;65656;51.130;13.658;2023-05-19T06:18:49;8.50;;;7.75;;
76731;SDS011;65656;51.130;13.658;2023-05-19T06:22:52;8.60;;;7.97;;
76731;SDS011;65656;51.130;13.658;2023-05-19T06:26:53;8.45;;;7.80;;
76731;SDS011;65656;51.130;13.658;2023-05-19T06:30:55;9.75;;;8.93;;
76731;SDS011;65656;51.130;13.658;2023-05-19T06:34:57;8.15;;;7.18;;
76731;SDS011;65656;51.130;13.658;2023-05-19T06:38:59;12.10;;;11.10;;
76731;SDS011;65656;51.130;13.658;2023-05-19T06:43:03;10.40;;;9.43;;
76731;SDS011;65656;51.130;13.658;2023-05-19T06:47:04;12.63;;;11.45;;
76731;SDS011;65656;51.130;13.658;2023-05-19T06:51:06;12.63;;;11.52;;
76731;SDS011;65656;51.130;13.658;2023-05-19T06:55:09;16.10;;;8.48;;
76731;SDS011;65656;51.130;13.658;2023-05-19T06:59:10;8.93;;;8.07;;
76731;SDS011;65656;51.130;13.658;2023-05-19T07:03:12;8.30;;;7.35;;
76731;SDS011;65656;51.130;13.658;2023-05-19T07:07:14;12.57;;;11.52;;
76731;SDS011;65656;51.130;13.658;2023-05-19T07:11:17;14.05;;;9.75;;
76731;SDS011;65656;51.130;13.658;2023-05-19T07:15:18;8.77;;;8.05;;
76731;SDS011;65656;51.130;13.658;2023-05-19T07:19:20;11.32;;;10.30;;
76731;SDS011;65656;51.130;13.658;2023-05-19T07:23:21;12.20;;;11.10;;
76731;SDS011;65656;51.130;13.658;2023-05-19T07:27:24;8.60;;;7.70;;
76731;SDS011;65656;51.130;13.658;2023-05-19T07:31:26;8.60;;;6.95;;
76731;SDS011;65656;51.130;13.658;2023-05-19T07:35:28;5.75;;;5.20;;
76731;SDS011;65656;51.130;13.658;2023-05-19T07:39:30;8.35;;;7.60;;
76731;SDS011;65656;51.130;13.658;2023-05-19T07:43:33;9.18;;;8.32;;
76731;SDS011;65656;51.130;13.658;2023-05-19T07:47:34;8.73;;;7.82;;
76731;SDS011;65656;51.130;13.658;2023-05-19T07:51:36;5.13;;;3.35;;
76731;SDS011;65656;51.130;13.658;2023-05-19T07:55:37;5.45;;;4.47;;
76731;SDS011;65656;51.130;13.658;2023-05-19T07:59:40;9.65;;;7.00;;
76731;SDS011;65656;51.130;13.658;2023-05-19T08:03:42;7.40;;;6.80;;
76731;SDS011;65656;51.130;13.658;2023-05-19T08:07:44;8.40;;;6.38;;
76731;SDS011;65656;51.130;13.658;2023-05-19T08:11:45;5.68;;;5.18;;
76731;SDS011;65656;51.130;13.658;2023-05-19T08:15:48;6.53;;;5.82;;
76731;SDS011;65656;51.130;13.658;2023-05-19T08:19:50;7.93;;;4.13;;
76731;SDS011;65656;51.130;13.658;2023-05-19T08:23:51;8.52;;;7.82;;
76731;SDS011;65656;51.130;13.658;2023-05-19T08:27:53;7.70;;;6.78;;
76731;SDS011;65656;51.130;13.658;2023-05-19T08:31:56;9.25;;;8.25;;
76731;SDS011;65656;51.130;13.658;2023-05-19T08:35:57;8.10;;;7.18;;
76731;SDS011;65656;51.130;13.658;2023-05-19T08:39:59;11.32;;;10.32;;
76731;SDS011;65656;51.130;13.658;2023-05-19T08:44:01;6.80;;;6.20;;
76731;SDS011;65656;51.130;13.658;2023-05-19T08:48:04;7.15;;;6.18;;
76731;SDS011;65656;51.130;13.658;2023-05-19T08:52:08;9.30;;;8.48;;
76731;SDS011;65656;51.130;13.658;2023-05-19T08:56:20;8.10;;;5.53;;
76731;SDS011;65656;51.130;13.658;2023-05-19T09:00:22;11.77;;;9.00;;
76731;SDS011;65656;51.130;13.658;2023-05-19T09:04:26;8.43;;;7.50;;
76731;SDS011;65656;51.130;13.658;2023-05-19T09:12:32;8.48;;;7.75;;
76731;SDS011;65656;51.130;13.658;2023-05-19T09:16:33;10.68;;;9.63;;
76731;SDS011;65656;51.130;13.658;2023-05-19T09:20:37;6.90;;;6.15;;
76731;SDS011;65656;51.130;13.658;2023-05-19T09:24:40;6.82;;;5.20;;
76731;SDS011;65656;51.130;13.658;2023-05-19T09:28:41;6.22;;;5.00;;
76731;SDS011;65656;51.130;13.658;2023-05-19T09:32:43;7.80;;;5.70;;
76731;SDS011;65656;51.130;13.658;2023-05-19T09:36:47;7.25;;;5.53;;
76731;SDS011;65656;51.130;13.658;2023-05-19T09:40:49;7.75;;;6.50;;
76731;SDS011;65656;51.130;13.658;2023-05-19T09:44:52;7.90;;;7.18;;
76731;SDS011;65656;51.130;13.658;2023-05-19T09:48:59;6.75;;;4.82;;
76731;SDS011;65656;51.130;13.658;2023-05-19T09:53:12;7.18;;;6.47;;
76731;SDS011;65656;51.130;13.658;2023-05-19T09:57:14;6.43;;;3.88;;
76731;SDS011;65656;51.130;13.658;2023-05-19T10:01:16;6.03;;;4.80;;
76731;SDS011;65656;51.130;13.658;2023-05-19T10:05:18;7.15;;;6.50;;
76731;SDS011;65656;51.130;13.658;2023-05-19T10:09:23;12.65;;;6.75;;
76731;SDS011;65656;51.130;13.658;2023-05-19T10:13:27;9.98;;;7.70;;
76731;SDS011;65656;51.130;13.658;2023-05-19T10:17:29;5.40;;;4.90;;
76731;SDS011;65656;51.130;13.658;2023-05-19T10:21:32;6.25;;;5.47;;
76731;SDS011;65656;51.130;13.658;2023-05-19T10:25:35;7.35;;;5.28;;
76731;SDS011;65656;51.130;13.658;2023-05-19T10:29:38;6.85;;;5.80;;
76731;SDS011;65656;51.130;13.658;2023-05-19T10:33:46;7.82;;;7.10;;
76731;SDS011;65656;51.130;13.658;2023-05-19T10:38:05;7.32;;;6.63;;
76731;SDS011;65656;51.130;13.658;2023-05-19T10:42:15;7.15;;;6.20;;
76731;SDS011;65656;51.130;13.658;2023-05-19T10:46:26;9.88;;;9.07;;
76731;SDS011;65656;51.130;13.658;2023-05-19T10:50:34;6.45;;;4.82;;
76731;SDS011;65656;51.130;13.658;2023-05-19T10:54:39;9.65;;;8.95;;
76731;SDS011;65656;51.130;13.658;2023-05-19T10:58:51;5.90;;;5.25;;
76731;SDS011;65656;51.130;13.658;2023-05-19T11:02:53;9.25;;;8.35;;
76731;SDS011;65656;51.130;13.658;2023-05-19T11:07:14;7.47;;;6.88;;
76731;SDS011;65656;51.130;13.658;2023-05-19T11:11:17;7.00;;;4.78;;
76731;SDS011;65656;51.130;13.658;2023-05-19T11:15:20;5.88;;;5.35;;
76731;SDS011;65656;51.130;13.658;2023-05-19T11:19:26;6.55;;;6.05;;
76731;SDS011;65656;51.130;13.658;2023-05-19T11:23:31;9.05;;;6.22;;
76731;SDS011;65656;51.130;13.658;2023-05-19T11:27:35;7.80;;;6.15;;
76731;SDS011;65656;51.130;13.658;2023-05-19T11:31:38;7.88;;;7.13;;
76731;SDS011;65656;51.130;13.658;2023-05-19T11:35:44;9.23;;;8.32;;
76731;SDS011;65656;51.130;13.658;2023-05-19T11:39:46;7.88;;;7.10;;
76731;SDS011;65656;51.130;13.658;2023-05-19T11:43:48;7.40;;;6.78;;
76731;SDS011;65656;51.130;13.658;2023-05-19T11:47:51;5.93;;;5.43;;
76731;SDS011;65656;51.130;13.658;2023-05-19T11:52:00;8.48;;;7.88;;
76731;SDS011;65656;51.130;13.658;2023-05-19T11:56:02;10.00;;;7.05;;
76731;SDS011;65656;51.130;13.658;2023-05-19T12:00:05;9.75;;;5.10;;
76731;SDS011;65656;51.130;13.658;2023-05-19T12:04:09;6.85;;;6.22;;
76731;SDS011;65656;51.130;13.658;2023-05-19T12:08:10;6.93;;;6.32;;
76731;SDS011;65656;51.130;13.658;2023-05-19T12:12:12;5.90;;;5.32;;
76731;SDS011;65656;51.130;13.658;2023-05-19T12:16:18;5.80;;;5.03;;
76731;SDS011;65656;51.130;13.658;2023-05-19T12:20:21;8.82;;;8.05;;
76731;SDS011;65656;51.130;13.658;2023-05-19T12:24:24;8.65;;;7.80;;
76731;SDS011;65656;51.130;13.658;2023-05-19T12:28:28;6.22;;;4.78;;
76731;SDS011;65656;51.130;13.658;2023-05-19T12:32:31;9.05;;;8.25;;
76731;SDS011;65656;51.130;13.658;2023-05-19T12:36:35;8.70;;;7.95;;
76731;SDS011;65656;51.130;13.658;2023-05-19T12:40:37;8.60;;;7.90;;
76731;SDS011;65656;51.130;13.658;2023-05-19T12:44:41;10.63;;;7.18;;
76731;SDS011;65656;51.130;13.658;2023-05-19T12:48:44;6.43;;;5.82;;
76731;SDS011;65656;51.130;13.658;2023-05-19T12:52:48;7.40;;;5.75;;
76731;SDS011;65656;51.130;13.658;2023-05-19T12:56:51;5.13;;;4.63;;
76731;SDS011;65656;51.130;13.658;2023-05-19T13:00:57;9.70;;;8.88;;
76731;SDS011;65656;51.130;13.658;2023-05-19T13:04:59;8.43;;;7.72;;
76731;SDS011;65656;51.130;13.658;2023-05-19T13:09:02;8.27;;;7.25;;
76731;SDS011;65656;51.130;13.658;2023-05-19T13:13:04;9.35;;;8.43;;
76731;SDS011;65656;51.130;13.658;2023-05-19T13:17:06;15.65;;;14.38;;
76731;SDS011;65656;51.130;13.658;2023-05-19T13:21:07;8.38;;;7.07;;
76731;SDS011;65656;51.130;13.658;2023-05-19T13:25:10;10.23;;;9.45;;
76731;SDS011;65656;51.130;13.658;2023-05-19T13:29:12;7.68;;;6.88;;
76731;SDS011;65656;51.130;13.658;2023-05-19T13:33:13;12.88;;;8.00;;
76731;SDS011;65656;51.130;13.658;2023-05-19T13:37:15;11.82;;;10.80;;
76731;SDS011;65656;51.130;13.658;2023-05-19T13:41:22;9.48;;;8.57;;
76731;SDS011;65656;51.130;13.658;2023-05-19T13:45:24;8.20;;;7.40;;
76731;SDS011;65656;51.130;13.658;2023-05-19T13:49:25;9.05;;;7.28;;
76731;SDS011;65656;51.130;13.658;2023-05-19T13:53:27;6.85;;;6.15;;
76731;SDS011;65656;51.130;13.658;2023-05-19T13:57:30;8.25;;;7.55;;
76731;SDS011;65656;51.130;13.658;2023-05-19T14:01:31;17.52;;;16.52;;
76731;SDS011;65656;51.130;13.658;2023-05-19T14:05:33;4.88;;;3.58;;
76731;SDS011;65656;51.130;13.658;2023-05-19T14:09:34;8.25;;;7.53;;
76731;SDS011;65656;51.130;13.658;2023-05-19T14:13:37;8.82;;;7.20;;
76731;SDS011;65656;51.130;13.658;2023-05-19T14:17:39;19.10;;;17.90;;
76731;SDS011;65656;51.130;13.658;2023-05-19T14:21:41;7.47;;;6.28;;
76731;SDS011;65656;51.130;13.658;2023-05-19T14:25:43;5.82;;;5.32;;
76731;SDS011;65656;51.130;13.658;2023-05-19T14:29:46;7.97;;;7.38;;
76731;SDS011;65656;51.130;13.658;2023-05-19T14:33:48;10.05;;;9.32;;
76731;SDS011;65656;51.130;13.658;2023-05-19T14:37:49;8.48;;;7.68;;
76731;SDS011;65656;51.130;13.658;2023-05-19T14:41:51;9.25;;;8.27;;
76731;SDS011;65656;51.130;13.658;2023-05-19T14:45:54;10.75;;;9.80;;
76731;SDS011;65656;51.130;13.658;2023-05-19T14:49:56;11.23;;;10.32;;
76731;SDS011;65656;51.130;13.658;2023-05-19T14:53:58;8.63;;;7.07;;
76731;SDS011;65656;51.130;13.658;2023-05-19T14:57:59;12.23;;;11.18;;
76731;SDS011;65656;51.130;13.658;2023-05-19T15:02:02;8.30;;;7.57;;
76731;SDS011;65656;51.130;13.658;2023-05-19T15:06:06;8.40;;;7.13;;
76731;SDS011;65656;51.130;13.658;2023-05-19T15:10:08;9.32;;;8.38;;
76731;SDS011;65656;51.130;13.658;2023-05-19T15:14:10;11.10;;;10.10;;
76731;SDS011;65656;51.130;13.658;2023-05-19T15:18:13;12.10;;;11.10;;
76731;SDS011;65656;51.130;13.658;2023-05-19T15:22:14;9.70;;;8.55;;
76731;SDS011;65656;51.130;13.658;2023-05-19T15:26:16;9.98;;;8.98;;
76731;SDS011;65656;51.130;13.658;2023-05-19T15:30:18;11.30;;;10.20;;
76731;SDS011;65656;51.130;13.658;2023-05-19T15:34:21;10.57;;;9.77;;
76731;SDS011;65656;51.130;13.658;2023-05-19T15:38:22;9.57;;;7.80;;
76731;SDS011;65656;51.130;13.658;2023-05-19T15:42:24;10.52;;;9.52;;
76731;SDS011;65656;51.130;13.658;2023-05-19T15:46:25;10.60;;;9.82;;
76731;SDS011;65656;51.130;13.658;2023-05-19T15:50:28;17.40;;;16.10;;
76731;SDS011;65656;51.130;13.658;2023-05-19T15:54:30;9.45;;;8.55;;
76731;SDS011;65656;51.130;13.658;2023-05-19T15:58:32;10.52;;;9.52;;
76731;SDS011;65656;51.130;13.658;2023-05-19T16:02:33;15.02;;;13.98;;
76731;SDS011;65656;51.130;13.658;2023-05-19T16:06:36;10.82;;;9.93;;
76731;SDS011;65656;51.130;13.658;2023-05-19T16:10:38;8.45;;;7.75;;
76731;SDS011;65656;51.130;13.658;2023-05-19T16:14:39;10.27;;;9.32;;
76731;SDS011;65656;51.130;13.658;2023-05-19T16:18:41;7.65;;;6.85;;
76731;SDS011;65656;51.130;13.658;2023-05-19T16:22:44;10.77;;;8.43;;
76731;SDS011;65656;51.130;13.658;2023-05-19T16:26:45;8.38;;;7.68;;
76731;SDS011;65656;51.130;13.658;2023-05-19T16:30:47;9.73;;;8.88;;
76731;SDS011;65656;51.130;13.658;2023-05-19T16:34:48;12.45;;;11.45;;
76731;SDS011;65656;51.130;13.658;2023-05-19T16:38:51;11.30;;;10.18;;
76731;SDS011;65656;51.130;13.658;2023-05-19T16:42:53;11.20;;;10.30;;
76731;SDS011;65656;51.130;13.658;2023-05-19T16:46:54;11.00;;;9.95;;
76731;SDS011;65656;51.130;13.658;2023-05-19T16:50:56;11.95;;;10.85;;
76731;SDS011;65656;51.130;13.658;2023-05-19T16:54:59;24.33;;;22.85;;
76731;SDS011;65656;51.130;13.658;2023-05-19T16:59:01;9.27;;;8.40;;
76731;SDS011;65656;51.130;13.658;2023-05-19T17:03:02;13.80;;;12.73;;
76731;SDS011;65656;51.130;13.658;2023-05-19T17:07:04;13.68;;;12.63;;
76731;SDS011;65656;51.130;13.658;2023-05-19T17:11:07;10.20;;;9.25;;
76731;SDS011;65656;51.130;13.658;2023-05-19T17:15:09;12.68;;;11.35;;
76731;SDS011;65656;51.130;13.658;2023-05-19T17:19:11;9.70;;;8.10;;
76731;SDS011;65656;51.130;13.658;2023-05-19T17:23:13;9.05;;;8.30;;
76731;SDS011;65656;51.130;13.658;2023-05-19T17:27:15;10.98;;;9.93;;
76731;SDS011;65656;51.130;13.658;2023-05-19T17:31:17;12.43;;;11.50;;
76731;SDS011;65656;51.130;13.658;2023-05-19T17:35:19;12.98;;;11.88;;
76731;SDS011;65656;51.130;13.658;2023-05-19T17:39:20;10.73;;;9.73;;
76731;SDS011;65656;51.130;13.658;2023-05-19T17:43:23;10.75;;;9.85;;
76731;SDS011;65656;51.130;13.658;2023-05-19T17:47:25;11.13;;;10.13;;
76731;SDS011;65656;51.130;13.658;2023-05-19T17:51:26;9.95;;;9.05;;
76731;SDS011;65656;51.130;13.658;2023-05-19T17:55:29;13.85;;;12.68;;
76731;SDS011;65656;51.130;13.658;2023-05-19T17:59:32;17.77;;;16.48;;
76731;SDS011;65656;51.130;13.658;2023-05-19T18:03:35;11.43;;;10.55;;
76731;SDS011;65656;51.130;13.658;2023-05-19T18:07:37;13.30;;;12.15;;
76731;SDS011;65656;51.130;13.658;2023-05-19T18:11:39;12.63;;;11.68;;
76731;SDS011;65656;51.130;13.658;2023-05-19T18:15:42;11.52;;;10.63;;
76731;SDS011;65656;51.130;13.658;2023-05-19T18:19:44;13.82;;;12.48;;
76731;SDS011;65656;51.130;13.658;2023-05-19T18:23:45;12.40;;;11.25;;
76731;SDS011;65656;51.130;13.658;2023-05-19T18:27:47;26.90;;;25.25;;
76731;SDS011;65656;51.130;13.658;2023-05-19T18:31:50;13.20;;;12.10;;
76731;SDS011;65656;51.130;13.658;2023-05-19T18:35:51;13.95;;;12.68;;
76731;SDS011;65656;51.130;13.658;2023-05-19T18:39:53;12.70;;;11.50;;
76731;SDS011;65656;51.130;13.658;2023-05-19T18:43:55;14.73;;;13.32;;
76731;SDS011;65656;51.130;13.658;2023-05-19T18:47:58;12.95;;;11.82;;
76731;SDS011;65656;51.130;13.658;2023-05-19T18:51:59;12.90;;;11.38;;
76731;SDS011;65656;51.130;13.658;2023-05-19T18:56:01;17.70;;;16.30;;
76731;SDS011;65656;51.130;13.658;2023-05-19T19:00:03;15.18;;;13.77;;
76731;SDS011;65656;51.130;13.658;2023-05-19T19:04:07;12.98;;;11.75;;
76731;SDS011;65656;51.130;13.658;2023-05-19T19:08:08;15.32;;;13.77;;
76731;SDS011;65656;51.130;13.658;2023-05-19T19:12:10;13.02;;;11.70;;
76731;SDS011;65656;51.130;13.658;2023-05-19T19:16:12;20.80;;;18.83;;
76731;SDS011;65656;51.130;13.658;2023-05-19T19:20:15;21.52;;;19.75;;
76731;SDS011;65656;51.130;13.658;2023-05-19T19:24:16;19.95;;;16.23;;
76731;SDS011;65656;51.130;13.658;2023-05-19T19:28:18;19.00;;;17.25;;
76731;SDS011;65656;51.130;13.658;2023-05-19T19:32:19;19.38;;;17.63;;
76731;SDS011;65656;51.130;13.658;2023-05-19T19:36:22;19.25;;;16.95;;
76731;SDS011;65656;51.130;13.658;2023-05-19T19:40:24;21.63;;;19.75;;
76731;SDS011;65656;51.130;13.658;2023-05-19T19:44:26;19.05;;;17.15;;
76731;SDS011;65656;51.130;13.658;2023-05-19T19:48:27;23.02;;;20.98;;
76731;SDS011;65656;51.130;13.658;2023-05-19T19:52:30;20.17;;;18.15;;
76731;SDS011;65656;51.130;13.658;2023-05-19T19:56:32;20.85;;;18.65;;
76731;SDS011;65656;51.130;13.658;2023-05-19T20:00:33;21.17;;;19.17;;
76731;SDS011;65656;51.130;13.658;2023-05-19T20:04:35;23.73;;;21.55;;
76731;SDS011;65656;51.130;13.658;2023-05-19T20:08:38;20.60;;;18.25;;
76731;SDS011;65656;51.130;13.658;2023-05-19T20:12:40;22.15;;;19.35;;
76731;SDS011;65656;51.130;13.658;2023-05-19T20:16:41;20.23;;;18.13;;
76731;SDS011;65656;51.130;13.658;2023-05-19T20:20:43;32.05;;;29.33;;
76731;SDS011;65656;51.130;13.658;2023-05-19T20:24:46;33.10;;;30.40;;
76731;SDS011;65656;51.130;13.658;2023-05-19T20:28:47;18.88;;;16.75;;
76731;SDS011;65656;51.130;13.658;2023-05-19T20:32:49;19.67;;;17.58;;
76731;SDS011;65656;51.130;13.658;2023-05-19T20:36:51;39.17;;;36.42;;
76731;SDS011;65656;51.130;13.658;2023-05-19T20:40:54;22.85;;;20.58;;
76731;SDS011;65656;51.130;13.658;2023-05-19T20:44:55;22.52;;;20.20;;
76731;SDS011;65656;51.130;13.658;2023-05-19T20:48:57;22.02;;;18.42;;
76731;SDS011;65656;51.130;13.658;2023-05-19T20:52:59;22.00;;;18.58;;
76731;SDS011;65656;51.130;13.658;2023-05-19T20:57:02;22.48;;;20.25;;
76731;SDS011;65656;51.130;13.658;2023-05-19T21:01:03;23.10;;;20.88;;
76731;SDS011;65656;51.130;13.658;2023-05-19T21:05:05;22.33;;;20.08;;
76731;SDS011;65656;51.130;13.658;2023-05-19T21:09:07;23.92;;;21.55;;
76731;SDS011;65656;51.130;13.658;2023-05-19T21:13:10;23.10;;;20.15;;
76731;SDS011;65656;51.130;13.658;2023-05-19T21:17:12;30.48;;;27.92;;
76731;SDS011;65656;51.130;13.658;2023-05-19T21:21:13;22.88;;;20.52;;
76731;SDS011;65656;51.130;13.658;2023-05-19T21:25:15;23.92;;;21.10;;
76731;SDS011;65656;51.130;13.658;2023-05-19T21:29:18;23.73;;;20.73;;
76731;SDS011;65656;51.130;13.658;2023-05-19T21:33:20;27.90;;;25.42;;
76731;SDS011;65656;51.130;13.658;2023-05-19T21:37:21;27.63;;;24.92;;
76731;SDS011;65656;51.130;13.658;2023-05-19T21:41:23;22.27;;;20.10;;
76731;SDS011;65656;51.130;13.658;2023-05-19T21:45:26;34.17;;;31.27;;
76731;SDS011;65656;51.130;13.658;2023-05-19T21:49:28;21.33;;;19.15;;
76731;SDS011;65656;51.130;13.658;2023-05-19T21:53:29;22.13;;;19.85;;
76731;SDS011;65656;51.130;13.658;2023-05-19T21:57:31;25.33;;;22.67;;
76731;SDS011;65656;51.130;13.658;2023-05-19T22:01:34;18.45;;;16.55;;
76731;SDS011;65656;51.130;13.658;2023-05-19T22:05:35;25.58;;;22.52;;
76731;SDS011;65656;51.130;13.658;2023-05-19T22:09:37;25.00;;;22.38;;
76731;SDS011;65656;51.130;13.658;2023-05-19T22:13:39;36.55;;;33.47;;
76731;SDS011;65656;51.130;13.658;2023-05-19T22:17:42;24.33;;;21.85;;
76731;SDS011;65656;51.130;13.658;2023-05-19T22:21:43;26.30;;;22.15;;
76731;SDS011;65656;51.130;13.658;2023-05-19T22:25:45;21.77;;;19.40;;
76731;SDS011;65656;51.130;13.658;2023-05-19T22:29:46;24.13;;;20.85;;
76731;SDS011;65656;51.130;13.658;2023-05-19T22:33:49;19.67;;;17.58;;
76731;SDS011;65656;51.130;13.658;2023-05-19T22:37:51;24.23;;;18.38;;
76731;SDS011;65656;51.130;13.658;2023-05-19T22:41:53;22.50;;;20.13;;
76731;SDS011;65656;51.130;13.658;2023-05-19T22:45:54;21.15;;;18.67;;
76731;SDS011;65656;51.130;13.658;2023-05-19T22:49:57;22.48;;;19.42;;
76731;SDS011;65656;51.130;13.658;2023-05-19T22:53:59;24.00;;;21.13;;
76731;SDS011;65656;51.130;13.658;2023-05-19T22:58:00;33.28;;;30.50;;
76731;SDS011;65656;51.130;13.658;2023-05-19T23:02:02;23.80;;;21.25;;
76731;SDS011;65656;51.130;13.658;2023-05-19T23:06:05;24.08;;;20.20;;
76731;SDS011;65656;51.130;13.658;2023-05-19T23:10:06;25.48;;;21.40;;
76731;SDS011;65656;51.130;13.658;2023-05-19T23:14:09;25.83;;;22.27;;
76731;SDS011;65656;51.130;13.658;2023-05-19T23:18:10;26.90;;;24.30;;
76731;SDS011;65656;51.130;13.658;2023-05-19T23:22:14;30.40;;;27.50;;
76731;SDS011;65656;51.130;13.658;2023-05-19T23:26:16;25.38;;;22.85;;
76731;SDS011;65656;51.130;13.658;2023-05-19T23:30:17;23.30;;;20.88;;
76731;SDS011;65656;51.130;13.658;2023-05-19T23:34:19;26.02;;;22.10;;
76731;SDS011;65656;51.130;13.658;2023-05-19T23:38:22;26.88;;;24.00;;
76731;SDS011;65656;51.130;13.658;2023-05-19T23:42:23;27.02;;;23.50;;